首页
METAR-TAF:

METAR-TAF

机场 :

伊爾庫茨克國際機場

伊爾庫茨克, 俄罗斯

纬度: 52-16N, 经度: 104-19E, 海拔: 513米

当前天气观测

该预报发布于38分钟前的14:00 UTC
风速8节,风向西转西北
温度 2°C
湿度 87%
气压 1012 hPa
能见度10公里或以上
多云层高于1100英尺

METAR: UIII 231400Z 30004MPS 9999 BKN011 02/00 Q1012 R30/60D NOSIG RMK QFE714/0953

时间: 22:38 (14:38 UTC)

预报

该预报发布于1小时和25分钟前的13:13 UTC
预报有效从23日的 13点(UTC)到 24日的 12点(UTC)
风速14节,风向西转西北
能见度10公里或以上
多云层高于900英尺, 积雨云.
成为
从 23日的 14点(UTC)到 23日的 15点(UTC)
能見度: 1500
多云层高于400英尺, 积雨云.
阵雪
短暂存在
从 23日的 15点(UTC)到 24日的 12点(UTC)
风速25节,风向西北
能見度: 0500
层高于200英尺
大阵雪

TAF: UIII 231313Z 2313/2412 30007MPS 9999 BKN009CB BECMG 2314/2315 1500 SHSN BKN004CB TEMPO 2315/2412 32013MPS 0500 +SHSN VV002

超过4000个机场的气象观测和天气预报(METAR&TAF报告)。

可查询的气象台以黄色和红色小点在地图上表示。

将鼠标移到小点上方,可查看气象台名称。

然后点击查看天气观测和预报。

如需切换地图:点击带黑十字的绿色按钮放大地图;点击带横线的绿色按钮缩小地图;或者点击绿色箭头查看邻近地区的地图。


METAR-TAF: